sensor_id;sensor_type;location;lat;lon;timestamp;P1;durP1;ratioP1;P2;durP2;ratioP2
50681;SDS011;36779;52.168;20.878;2023-04-24T00:02:19;11.80;;;6.10;;
50681;SDS011;36779;52.168;20.878;2023-04-24T00:05:13;13.70;;;6.80;;
50681;SDS011;36779;52.168;20.878;2023-04-24T00:08:08;13.10;;;6.50;;
50681;SDS011;36779;52.168;20.878;2023-04-24T00:10:59;13.20;;;7.00;;
50681;SDS011;36779;52.168;20.878;2023-04-24T00:18:01;14.90;;;6.80;;
50681;SDS011;36779;52.168;20.878;2023-04-24T00:20:54;13.60;;;6.20;;
50681;SDS011;36779;52.168;20.878;2023-04-24T00:23:56;12.50;;;6.60;;
50681;SDS011;36779;52.168;20.878;2023-04-24T00:26:40;12.60;;;6.90;;
50681;SDS011;36779;52.168;20.878;2023-04-24T00:29:33;11.80;;;7.10;;
50681;SDS011;36779;52.168;20.878;2023-04-24T00:32:27;14.80;;;6.60;;
50681;SDS011;36779;52.168;20.878;2023-04-24T00:35:20;12.00;;;7.00;;
50681;SDS011;36779;52.168;20.878;2023-04-24T00:38:03;15.00;;;6.90;;
50681;SDS011;36779;52.168;20.878;2023-04-24T00:40:56;13.40;;;7.20;;
50681;SDS011;36779;52.168;20.878;2023-04-24T00:44:13;11.50;;;6.90;;
50681;SDS011;36779;52.168;20.878;2023-04-24T00:47:06;12.10;;;6.60;;
50681;SDS011;36779;52.168;20.878;2023-04-24T00:50:01;11.90;;;6.70;;
50681;SDS011;36779;52.168;20.878;2023-04-24T00:53:07;11.80;;;6.90;;
50681;SDS011;36779;52.168;20.878;2023-04-24T00:55:51;13.10;;;7.00;;
50681;SDS011;36779;52.168;20.878;2023-04-24T00:58:44;13.80;;;6.50;;
50681;SDS011;36779;52.168;20.878;2023-04-24T01:01:38;11.10;;;6.30;;
50681;SDS011;36779;52.168;20.878;2023-04-24T01:04:33;11.70;;;6.00;;
50681;SDS011;36779;52.168;20.878;2023-04-24T01:07:27;12.40;;;7.00;;
50681;SDS011;36779;52.168;20.878;2023-04-24T01:10:33;13.60;;;7.50;;
50681;SDS011;36779;52.168;20.878;2023-04-24T01:13:32;13.60;;;7.30;;
50681;SDS011;36779;52.168;20.878;2023-04-24T01:16:29;15.20;;;7.20;;
50681;SDS011;36779;52.168;20.878;2023-04-24T01:19:22;16.40;;;7.50;;
50681;SDS011;36779;52.168;20.878;2023-04-24T01:22:32;12.70;;;7.30;;
50681;SDS011;36779;52.168;20.878;2023-04-24T01:25:25;14.40;;;7.60;;
50681;SDS011;36779;52.168;20.878;2023-04-24T01:28:19;14.00;;;6.90;;
50681;SDS011;36779;52.168;20.878;2023-04-24T01:31:08;15.00;;;7.70;;
50681;SDS011;36779;52.168;20.878;2023-04-24T01:34:01;14.70;;;8.00;;
50681;SDS011;36779;52.168;20.878;2023-04-24T01:36:56;12.70;;;7.20;;
50681;SDS011;36779;52.168;20.878;2023-04-24T01:39:49;12.20;;;7.00;;
50681;SDS011;36779;52.168;20.878;2023-04-24T01:42:44;13.10;;;7.20;;
50681;SDS011;36779;52.168;20.878;2023-04-24T01:45:38;13.00;;;7.00;;
50681;SDS011;36779;52.168;20.878;2023-04-24T01:48:45;13.30;;;6.90;;
50681;SDS011;36779;52.168;20.878;2023-04-24T01:51:38;13.40;;;6.90;;
50681;SDS011;36779;52.168;20.878;2023-04-24T01:54:32;18.30;;;6.90;;
50681;SDS011;36779;52.168;20.878;2023-04-24T01:57:25;13.00;;;7.40;;
50681;SDS011;36779;52.168;20.878;2023-04-24T02:00:06;14.20;;;7.00;;
50681;SDS011;36779;52.168;20.878;2023-04-24T02:03:04;13.20;;;6.90;;
50681;SDS011;36779;52.168;20.878;2023-04-24T02:05:58;14.50;;;7.40;;
50681;SDS011;36779;52.168;20.878;2023-04-24T02:08:51;12.20;;;6.50;;
50681;SDS011;36779;52.168;20.878;2023-04-24T02:11:48;14.20;;;7.30;;
50681;SDS011;36779;52.168;20.878;2023-04-24T02:14:41;17.50;;;7.60;;
50681;SDS011;36779;52.168;20.878;2023-04-24T02:17:34;15.00;;;7.20;;
50681;SDS011;36779;52.168;20.878;2023-04-24T02:20:30;14.70;;;7.20;;
50681;SDS011;36779;52.168;20.878;2023-04-24T02:23:25;12.30;;;7.80;;
50681;SDS011;36779;52.168;20.878;2023-04-24T02:26:18;12.80;;;7.00;;
50681;SDS011;36779;52.168;20.878;2023-04-24T02:29:05;11.50;;;6.80;;
50681;SDS011;36779;52.168;20.878;2023-04-24T02:31:58;14.00;;;7.50;;
50681;SDS011;36779;52.168;20.878;2023-04-24T02:34:51;12.10;;;6.60;;
50681;SDS011;36779;52.168;20.878;2023-04-24T02:37:44;13.70;;;7.10;;
50681;SDS011;36779;52.168;20.878;2023-04-24T02:40:38;12.20;;;7.10;;
50681;SDS011;36779;52.168;20.878;2023-04-24T02:43:32;16.90;;;8.10;;
50681;SDS011;36779;52.168;20.878;2023-04-24T02:46:25;15.10;;;8.00;;
50681;SDS011;36779;52.168;20.878;2023-04-24T02:49:20;15.80;;;7.90;;
50681;SDS011;36779;52.168;20.878;2023-04-24T02:52:13;12.40;;;7.40;;
50681;SDS011;36779;52.168;20.878;2023-04-24T02:55:07;12.50;;;7.20;;
50681;SDS011;36779;52.168;20.878;2023-04-24T02:57:59;12.60;;;7.40;;
50681;SDS011;36779;52.168;20.878;2023-04-24T03:00:54;13.40;;;7.90;;
50681;SDS011;36779;52.168;20.878;2023-04-24T03:03:47;14.00;;;7.20;;
50681;SDS011;36779;52.168;20.878;2023-04-24T03:06:51;16.70;;;8.30;;
50681;SDS011;36779;52.168;20.878;2023-04-24T03:09:53;15.00;;;8.00;;
50681;SDS011;36779;52.168;20.878;2023-04-24T03:12:47;13.90;;;7.20;;
50681;SDS011;36779;52.168;20.878;2023-04-24T03:15:41;15.40;;;7.90;;
50681;SDS011;36779;52.168;20.878;2023-04-24T03:18:41;15.90;;;7.50;;
50681;SDS011;36779;52.168;20.878;2023-04-24T03:21:36;15.70;;;7.70;;
50681;SDS011;36779;52.168;20.878;2023-04-24T03:24:34;12.40;;;7.40;;
50681;SDS011;36779;52.168;20.878;2023-04-24T03:27:28;16.10;;;7.90;;
50681;SDS011;36779;52.168;20.878;2023-04-24T03:30:22;15.40;;;7.50;;
50681;SDS011;36779;52.168;20.878;2023-04-24T03:33:15;14.30;;;8.60;;
50681;SDS011;36779;52.168;20.878;2023-04-24T03:36:24;14.00;;;7.80;;
50681;SDS011;36779;52.168;20.878;2023-04-24T03:39:11;18.20;;;7.40;;
50681;SDS011;36779;52.168;20.878;2023-04-24T03:45:42;14.90;;;8.30;;
50681;SDS011;36779;52.168;20.878;2023-04-24T03:48:36;14.90;;;7.60;;
50681;SDS011;36779;52.168;20.878;2023-04-24T03:51:30;17.70;;;8.10;;
50681;SDS011;36779;52.168;20.878;2023-04-24T03:54:23;15.20;;;7.80;;
50681;SDS011;36779;52.168;20.878;2023-04-24T03:57:17;16.50;;;7.70;;
50681;SDS011;36779;52.168;20.878;2023-04-24T04:00:20;14.60;;;7.90;;
50681;SDS011;36779;52.168;20.878;2023-04-24T04:03:13;14.50;;;7.60;;
50681;SDS011;36779;52.168;20.878;2023-04-24T04:05:56;14.70;;;7.50;;
50681;SDS011;36779;52.168;20.878;2023-04-24T04:08:49;17.00;;;8.60;;
50681;SDS011;36779;52.168;20.878;2023-04-24T04:11:39;14.30;;;7.30;;
50681;SDS011;36779;52.168;20.878;2023-04-24T04:14:34;16.60;;;8.80;;
50681;SDS011;36779;52.168;20.878;2023-04-24T04:17:27;18.80;;;8.20;;
50681;SDS011;36779;52.168;20.878;2023-04-24T04:20:30;21.40;;;8.20;;
50681;SDS011;36779;52.168;20.878;2023-04-24T04:23:26;14.10;;;6.90;;
50681;SDS011;36779;52.168;20.878;2023-04-24T04:26:26;13.90;;;7.80;;
50681;SDS011;36779;52.168;20.878;2023-04-24T04:32:41;15.00;;;8.00;;
50681;SDS011;36779;52.168;20.878;2023-04-24T04:35:33;12.90;;;7.60;;
50681;SDS011;36779;52.168;20.878;2023-04-24T04:38:30;16.10;;;7.80;;
50681;SDS011;36779;52.168;20.878;2023-04-24T04:41:28;11.80;;;8.00;;
50681;SDS011;36779;52.168;20.878;2023-04-24T04:47:52;12.30;;;7.70;;
50681;SDS011;36779;52.168;20.878;2023-04-24T04:50:50;11.90;;;9.00;;
50681;SDS011;36779;52.168;20.878;2023-04-24T04:53:44;13.60;;;10.40;;
50681;SDS011;36779;52.168;20.878;2023-04-24T04:56:39;13.50;;;9.90;;
50681;SDS011;36779;52.168;20.878;2023-04-24T04:59:39;11.00;;;9.80;;
50681;SDS011;36779;52.168;20.878;2023-04-24T05:02:35;13.40;;;9.60;;
50681;SDS011;36779;52.168;20.878;2023-04-24T05:05:36;12.10;;;9.90;;
50681;SDS011;36779;52.168;20.878;2023-04-24T05:08:33;12.70;;;9.30;;
50681;SDS011;36779;52.168;20.878;2023-04-24T05:11:29;10.70;;;8.70;;
50681;SDS011;36779;52.168;20.878;2023-04-24T05:18:20;11.30;;;8.70;;
50681;SDS011;36779;52.168;20.878;2023-04-24T05:21:21;11.80;;;8.80;;
50681;SDS011;36779;52.168;20.878;2023-04-24T05:24:13;12.00;;;9.00;;
50681;SDS011;36779;52.168;20.878;2023-04-24T05:27:06;11.30;;;9.20;;
50681;SDS011;36779;52.168;20.878;2023-04-24T05:30:01;10.70;;;8.90;;
50681;SDS011;36779;52.168;20.878;2023-04-24T05:32:59;11.40;;;8.90;;
50681;SDS011;36779;52.168;20.878;2023-04-24T05:35:52;13.00;;;8.90;;
50681;SDS011;36779;52.168;20.878;2023-04-24T05:38:35;11.90;;;8.90;;
50681;SDS011;36779;52.168;20.878;2023-04-24T05:41:27;14.60;;;9.20;;
50681;SDS011;36779;52.168;20.878;2023-04-24T05:44:20;14.30;;;9.30;;
50681;SDS011;36779;52.168;20.878;2023-04-24T05:47:13;10.40;;;9.10;;
50681;SDS011;36779;52.168;20.878;2023-04-24T05:50:06;13.30;;;9.20;;
50681;SDS011;36779;52.168;20.878;2023-04-24T05:53:00;15.90;;;10.10;;
50681;SDS011;36779;52.168;20.878;2023-04-24T05:55:53;13.90;;;9.50;;
50681;SDS011;36779;52.168;20.878;2023-04-24T05:58:46;12.10;;;9.50;;
50681;SDS011;36779;52.168;20.878;2023-04-24T06:01:45;14.30;;;9.30;;
50681;SDS011;36779;52.168;20.878;2023-04-24T06:04:41;15.90;;;9.60;;
50681;SDS011;36779;52.168;20.878;2023-04-24T06:07:35;10.50;;;9.00;;
50681;SDS011;36779;52.168;20.878;2023-04-24T06:10:28;12.50;;;8.60;;
50681;SDS011;36779;52.168;20.878;2023-04-24T06:13:24;14.60;;;9.70;;
50681;SDS011;36779;52.168;20.878;2023-04-24T06:16:24;17.30;;;9.20;;
50681;SDS011;36779;52.168;20.878;2023-04-24T06:19:17;12.70;;;8.60;;
50681;SDS011;36779;52.168;20.878;2023-04-24T06:22:31;12.50;;;8.20;;
50681;SDS011;36779;52.168;20.878;2023-04-24T06:25:30;11.90;;;8.50;;
50681;SDS011;36779;52.168;20.878;2023-04-24T06:28:23;16.40;;;9.50;;
50681;SDS011;36779;52.168;20.878;2023-04-24T06:31:15;13.00;;;7.40;;
50681;SDS011;36779;52.168;20.878;2023-04-24T06:34:08;18.60;;;8.20;;
50681;SDS011;36779;52.168;20.878;2023-04-24T06:37:01;13.20;;;8.50;;
50681;SDS011;36779;52.168;20.878;2023-04-24T06:39:45;11.70;;;8.70;;
50681;SDS011;36779;52.168;20.878;2023-04-24T06:42:42;18.90;;;9.00;;
50681;SDS011;36779;52.168;20.878;2023-04-24T06:45:38;13.10;;;8.30;;
50681;SDS011;36779;52.168;20.878;2023-04-24T06:48:36;14.70;;;8.40;;
50681;SDS011;36779;52.168;20.878;2023-04-24T06:51:29;14.90;;;8.00;;
50681;SDS011;36779;52.168;20.878;2023-04-24T06:54:24;16.30;;;8.70;;
50681;SDS011;36779;52.168;20.878;2023-04-24T06:57:17;14.40;;;8.90;;
50681;SDS011;36779;52.168;20.878;2023-04-24T07:00:13;12.10;;;8.80;;
50681;SDS011;36779;52.168;20.878;2023-04-24T07:02:59;18.00;;;8.80;;
50681;SDS011;36779;52.168;20.878;2023-04-24T07:05:52;12.40;;;8.60;;
50681;SDS011;36779;52.168;20.878;2023-04-24T07:08:45;12.40;;;8.60;;
50681;SDS011;36779;52.168;20.878;2023-04-24T07:11:32;18.70;;;8.80;;
50681;SDS011;36779;52.168;20.878;2023-04-24T07:14:26;13.00;;;8.60;;
50681;SDS011;36779;52.168;20.878;2023-04-24T07:17:19;19.50;;;8.50;;
50681;SDS011;36779;52.168;20.878;2023-04-24T07:20:12;14.50;;;8.10;;
50681;SDS011;36779;52.168;20.878;2023-04-24T07:23:05;11.70;;;8.60;;
50681;SDS011;36779;52.168;20.878;2023-04-24T07:25:51;16.40;;;8.40;;
50681;SDS011;36779;52.168;20.878;2023-04-24T07:28:44;12.80;;;8.10;;
50681;SDS011;36779;52.168;20.878;2023-04-24T07:34:43;13.20;;;7.60;;
50681;SDS011;36779;52.168;20.878;2023-04-24T07:37:36;21.20;;;9.00;;
50681;SDS011;36779;52.168;20.878;2023-04-24T07:40:28;15.70;;;8.30;;
50681;SDS011;36779;52.168;20.878;2023-04-24T07:43:37;22.40;;;9.00;;
50681;SDS011;36779;52.168;20.878;2023-04-24T07:46:46;13.80;;;8.50;;
50681;SDS011;36779;52.168;20.878;2023-04-24T07:49:20;15.20;;;8.70;;
50681;SDS011;36779;52.168;20.878;2023-04-24T07:52:13;16.80;;;8.50;;
50681;SDS011;36779;52.168;20.878;2023-04-24T07:55:06;13.80;;;8.20;;
50681;SDS011;36779;52.168;20.878;2023-04-24T07:57:59;12.80;;;8.40;;
50681;SDS011;36779;52.168;20.878;2023-04-24T08:00:53;19.40;;;7.90;;
50681;SDS011;36779;52.168;20.878;2023-04-24T08:03:45;13.70;;;8.20;;
50681;SDS011;36779;52.168;20.878;2023-04-24T08:06:39;12.30;;;8.10;;
50681;SDS011;36779;52.168;20.878;2023-04-24T08:09:26;11.60;;;8.50;;
50681;SDS011;36779;52.168;20.878;2023-04-24T08:12:19;12.70;;;8.00;;
50681;SDS011;36779;52.168;20.878;2023-04-24T08:15:12;11.70;;;7.90;;
50681;SDS011;36779;52.168;20.878;2023-04-24T08:18:05;12.00;;;8.40;;
50681;SDS011;36779;52.168;20.878;2023-04-24T08:20:53;15.50;;;8.40;;
50681;SDS011;36779;52.168;20.878;2023-04-24T08:23:46;12.90;;;8.80;;
50681;SDS011;36779;52.168;20.878;2023-04-24T08:26:41;13.60;;;8.70;;
50681;SDS011;36779;52.168;20.878;2023-04-24T08:29:35;11.80;;;8.70;;
50681;SDS011;36779;52.168;20.878;2023-04-24T08:32:28;10.80;;;7.80;;
50681;SDS011;36779;52.168;20.878;2023-04-24T08:35:19;10.80;;;7.70;;
50681;SDS011;36779;52.168;20.878;2023-04-24T08:38:13;9.20;;;7.50;;
50681;SDS011;36779;52.168;20.878;2023-04-24T08:41:06;12.00;;;8.20;;
50681;SDS011;36779;52.168;20.878;2023-04-24T08:44:00;13.00;;;8.70;;
50681;SDS011;36779;52.168;20.878;2023-04-24T08:46:56;13.30;;;8.30;;
50681;SDS011;36779;52.168;20.878;2023-04-24T08:49:50;13.10;;;8.90;;
50681;SDS011;36779;52.168;20.878;2023-04-24T08:52:44;14.10;;;9.20;;
50681;SDS011;36779;52.168;20.878;2023-04-24T08:55:38;13.20;;;8.70;;
50681;SDS011;36779;52.168;20.878;2023-04-24T08:58:34;16.90;;;8.10;;
50681;SDS011;36779;52.168;20.878;2023-04-24T09:01:20;15.70;;;9.10;;
50681;SDS011;36779;52.168;20.878;2023-04-24T09:04:15;16.80;;;8.70;;
50681;SDS011;36779;52.168;20.878;2023-04-24T09:07:10;12.80;;;8.90;;
50681;SDS011;36779;52.168;20.878;2023-04-24T09:10:06;10.60;;;7.40;;
50681;SDS011;36779;52.168;20.878;2023-04-24T09:12:59;9.10;;;7.00;;
50681;SDS011;36779;52.168;20.878;2023-04-24T09:15:52;10.30;;;7.30;;
50681;SDS011;36779;52.168;20.878;2023-04-24T09:18:34;8.70;;;7.20;;
50681;SDS011;36779;52.168;20.878;2023-04-24T09:21:27;9.40;;;6.70;;
50681;SDS011;36779;52.168;20.878;2023-04-24T09:24:26;11.60;;;7.40;;
50681;SDS011;36779;52.168;20.878;2023-04-24T09:27:19;11.30;;;7.30;;
50681;SDS011;36779;52.168;20.878;2023-04-24T09:30:21;10.50;;;7.30;;
50681;SDS011;36779;52.168;20.878;2023-04-24T09:33:12;8.10;;;6.70;;
50681;SDS011;36779;52.168;20.878;2023-04-24T09:36:05;6.50;;;5.50;;
50681;SDS011;36779;52.168;20.878;2023-04-24T09:39:00;9.90;;;6.20;;
50681;SDS011;36779;52.168;20.878;2023-04-24T09:41:55;10.00;;;6.20;;
50681;SDS011;36779;52.168;20.878;2023-04-24T09:44:50;8.80;;;6.00;;
50681;SDS011;36779;52.168;20.878;2023-04-24T09:47:53;10.40;;;6.00;;
50681;SDS011;36779;52.168;20.878;2023-04-24T09:50:47;7.80;;;5.80;;
50681;SDS011;36779;52.168;20.878;2023-04-24T09:53:46;8.00;;;6.50;;
50681;SDS011;36779;52.168;20.878;2023-04-24T09:56:44;8.40;;;6.50;;
50681;SDS011;36779;52.168;20.878;2023-04-24T09:59:31;7.10;;;6.40;;
50681;SDS011;36779;52.168;20.878;2023-04-24T10:02:18;9.20;;;6.30;;
50681;SDS011;36779;52.168;20.878;2023-04-24T10:05:12;7.50;;;5.70;;
50681;SDS011;36779;52.168;20.878;2023-04-24T10:08:07;7.20;;;6.10;;
50681;SDS011;36779;52.168;20.878;2023-04-24T10:11:01;8.60;;;6.00;;
50681;SDS011;36779;52.168;20.878;2023-04-24T10:13:54;10.30;;;5.70;;
50681;SDS011;36779;52.168;20.878;2023-04-24T10:16:48;9.10;;;5.90;;
50681;SDS011;36779;52.168;20.878;2023-04-24T10:20:06;7.80;;;5.90;;
50681;SDS011;36779;52.168;20.878;2023-04-24T10:23:02;5.80;;;5.20;;
50681;SDS011;36779;52.168;20.878;2023-04-24T10:25:56;5.80;;;5.10;;
50681;SDS011;36779;52.168;20.878;2023-04-24T10:28:51;8.00;;;5.30;;
50681;SDS011;36779;52.168;20.878;2023-04-24T10:31:47;8.30;;;6.30;;
50681;SDS011;36779;52.168;20.878;2023-04-24T10:34:40;6.50;;;5.50;;
50681;SDS011;36779;52.168;20.878;2023-04-24T10:37:35;7.10;;;5.80;;
50681;SDS011;36779;52.168;20.878;2023-04-24T10:40:32;9.70;;;6.00;;
50681;SDS011;36779;52.168;20.878;2023-04-24T10:47:30;7.10;;;5.70;;
50681;SDS011;36779;52.168;20.878;2023-04-24T10:50:53;7.60;;;6.20;;
50681;SDS011;36779;52.168;20.878;2023-04-24T10:54:04;7.90;;;5.50;;
50681;SDS011;36779;52.168;20.878;2023-04-24T10:57:28;10.20;;;5.70;;
50681;SDS011;36779;52.168;20.878;2023-04-24T11:00:21;9.60;;;6.00;;
50681;SDS011;36779;52.168;20.878;2023-04-24T11:03:24;6.40;;;5.20;;
50681;SDS011;36779;52.168;20.878;2023-04-24T11:06:29;6.80;;;4.60;;
50681;SDS011;36779;52.168;20.878;2023-04-24T11:09:28;5.60;;;4.40;;
50681;SDS011;36779;52.168;20.878;2023-04-24T11:15:30;4.80;;;4.00;;
50681;SDS011;36779;52.168;20.878;2023-04-24T11:18:22;7.20;;;4.70;;
50681;SDS011;36779;52.168;20.878;2023-04-24T11:21:17;8.10;;;4.50;;
50681;SDS011;36779;52.168;20.878;2023-04-24T11:24:26;7.80;;;4.90;;
50681;SDS011;36779;52.168;20.878;2023-04-24T11:30:37;5.70;;;5.10;;
50681;SDS011;36779;52.168;20.878;2023-04-24T11:33:33;6.60;;;5.30;;
50681;SDS011;36779;52.168;20.878;2023-04-24T11:36:26;9.40;;;5.90;;
50681;SDS011;36779;52.168;20.878;2023-04-24T11:39:23;8.60;;;5.50;;
50681;SDS011;36779;52.168;20.878;2023-04-24T11:42:19;7.30;;;5.70;;
50681;SDS011;36779;52.168;20.878;2023-04-24T11:45:14;8.40;;;5.90;;
50681;SDS011;36779;52.168;20.878;2023-04-24T11:48:09;8.50;;;5.30;;
50681;SDS011;36779;52.168;20.878;2023-04-24T11:50:56;10.50;;;5.60;;
50681;SDS011;36779;52.168;20.878;2023-04-24T11:53:52;8.40;;;5.50;;
50681;SDS011;36779;52.168;20.878;2023-04-24T11:56:53;8.50;;;5.80;;
50681;SDS011;36779;52.168;20.878;2023-04-24T11:59:47;13.00;;;6.20;;
50681;SDS011;36779;52.168;20.878;2023-04-24T12:02:41;7.40;;;6.00;;
50681;SDS011;36779;52.168;20.878;2023-04-24T12:05:34;6.60;;;5.60;;
50681;SDS011;36779;52.168;20.878;2023-04-24T12:08:30;7.70;;;5.60;;
50681;SDS011;36779;52.168;20.878;2023-04-24T12:11:24;7.60;;;5.80;;
50681;SDS011;36779;52.168;20.878;2023-04-24T12:14:17;7.50;;;5.20;;
50681;SDS011;36779;52.168;20.878;2023-04-24T12:17:10;9.00;;;5.90;;
50681;SDS011;36779;52.168;20.878;2023-04-24T12:20:03;8.00;;;6.00;;
50681;SDS011;36779;52.168;20.878;2023-04-24T12:23:03;7.70;;;6.20;;
50681;SDS011;36779;52.168;20.878;2023-04-24T12:25:59;10.90;;;6.30;;
50681;SDS011;36779;52.168;20.878;2023-04-24T12:28:54;10.20;;;6.40;;
50681;SDS011;36779;52.168;20.878;2023-04-24T12:31:46;9.20;;;6.20;;
50681;SDS011;36779;52.168;20.878;2023-04-24T12:34:41;7.60;;;6.30;;
50681;SDS011;36779;52.168;20.878;2023-04-24T12:37:47;29.50;;;6.70;;
50681;SDS011;36779;52.168;20.878;2023-04-24T12:40:40;29.60;;;5.20;;
50681;SDS011;36779;52.168;20.878;2023-04-24T12:43:36;30.50;;;4.60;;
50681;SDS011;36779;52.168;20.878;2023-04-24T12:46:30;43.30;;;5.60;;
50681;SDS011;36779;52.168;20.878;2023-04-24T12:49:24;13.30;;;3.50;;
50681;SDS011;36779;52.168;20.878;2023-04-24T12:52:16;14.80;;;3.70;;
50681;SDS011;36779;52.168;20.878;2023-04-24T12:55:10;10.60;;;3.00;;
50681;SDS011;36779;52.168;20.878;2023-04-24T12:58:04;10.40;;;2.90;;
50681;SDS011;36779;52.168;20.878;2023-04-24T13:00:57;6.50;;;2.50;;
50681;SDS011;36779;52.168;20.878;2023-04-24T13:03:58;8.40;;;2.20;;
50681;SDS011;36779;52.168;20.878;2023-04-24T13:06:44;14.20;;;2.80;;
50681;SDS011;36779;52.168;20.878;2023-04-24T13:09:37;4.00;;;2.40;;
50681;SDS011;36779;52.168;20.878;2023-04-24T13:12:31;22.20;;;3.90;;
50681;SDS011;36779;52.168;20.878;2023-04-24T13:15:22;6.00;;;2.80;;
50681;SDS011;36779;52.168;20.878;2023-04-24T13:18:15;3.70;;;2.50;;
50681;SDS011;36779;52.168;20.878;2023-04-24T13:20:58;5.60;;;3.10;;
50681;SDS011;36779;52.168;20.878;2023-04-24T13:23:51;4.60;;;2.60;;
50681;SDS011;36779;52.168;20.878;2023-04-24T13:26:44;4.90;;;3.40;;
50681;SDS011;36779;52.168;20.878;2023-04-24T13:29:38;5.10;;;2.90;;
50681;SDS011;36779;52.168;20.878;2023-04-24T13:32:31;3.70;;;2.70;;
50681;SDS011;36779;52.168;20.878;2023-04-24T13:35:25;4.90;;;3.10;;
50681;SDS011;36779;52.168;20.878;2023-04-24T13:41:22;5.20;;;2.60;;
50681;SDS011;36779;52.168;20.878;2023-04-24T13:44:15;4.60;;;2.70;;
50681;SDS011;36779;52.168;20.878;2023-04-24T13:47:10;3.60;;;3.20;;
50681;SDS011;36779;52.168;20.878;2023-04-24T13:50:03;5.00;;;3.10;;
50681;SDS011;36779;52.168;20.878;2023-04-24T13:53:01;3.90;;;2.70;;
50681;SDS011;36779;52.168;20.878;2023-04-24T13:55:54;5.30;;;2.80;;
50681;SDS011;36779;52.168;20.878;2023-04-24T13:58:38;3.70;;;3.00;;
50681;SDS011;36779;52.168;20.878;2023-04-24T14:01:31;7.70;;;3.00;;
50681;SDS011;36779;52.168;20.878;2023-04-24T14:04:24;4.10;;;3.10;;
50681;SDS011;36779;52.168;20.878;2023-04-24T14:07:17;5.90;;;3.30;;
50681;SDS011;36779;52.168;20.878;2023-04-24T14:10:11;3.50;;;3.00;;
50681;SDS011;36779;52.168;20.878;2023-04-24T14:13:05;5.30;;;3.20;;
50681;SDS011;36779;52.168;20.878;2023-04-24T14:15:58;7.10;;;3.80;;
50681;SDS011;36779;52.168;20.878;2023-04-24T14:18:54;4.40;;;3.30;;
50681;SDS011;36779;52.168;20.878;2023-04-24T14:21:47;8.60;;;3.60;;
50681;SDS011;36779;52.168;20.878;2023-04-24T14:24:40;4.80;;;3.30;;
50681;SDS011;36779;52.168;20.878;2023-04-24T14:27:33;4.00;;;3.40;;
50681;SDS011;36779;52.168;20.878;2023-04-24T14:30:24;7.50;;;3.00;;
50681;SDS011;36779;52.168;20.878;2023-04-24T14:33:18;3.80;;;2.90;;
50681;SDS011;36779;52.168;20.878;2023-04-24T14:36:12;4.70;;;2.60;;
50681;SDS011;36779;52.168;20.878;2023-04-24T14:39:07;3.40;;;2.90;;
50681;SDS011;36779;52.168;20.878;2023-04-24T14:42:00;3.90;;;3.00;;
50681;SDS011;36779;52.168;20.878;2023-04-24T14:44:53;4.30;;;3.30;;
50681;SDS011;36779;52.168;20.878;2023-04-24T14:47:46;5.60;;;3.30;;
50681;SDS011;36779;52.168;20.878;2023-04-24T14:50:39;4.60;;;2.70;;
50681;SDS011;36779;52.168;20.878;2023-04-24T14:53:47;3.40;;;3.10;;
50681;SDS011;36779;52.168;20.878;2023-04-24T14:56:40;5.00;;;3.20;;
50681;SDS011;36779;52.168;20.878;2023-04-24T14:59:34;3.30;;;3.00;;
50681;SDS011;36779;52.168;20.878;2023-04-24T15:02:27;3.40;;;2.80;;
50681;SDS011;36779;52.168;20.878;2023-04-24T15:05:20;4.40;;;2.90;;
50681;SDS011;36779;52.168;20.878;2023-04-24T15:08:15;6.80;;;3.50;;
50681;SDS011;36779;52.168;20.878;2023-04-24T15:11:08;3.00;;;2.70;;
50681;SDS011;36779;52.168;20.878;2023-04-24T15:14:01;4.60;;;3.00;;
50681;SDS011;36779;52.168;20.878;2023-04-24T15:16:54;4.40;;;3.10;;
50681;SDS011;36779;52.168;20.878;2023-04-24T15:19:47;3.60;;;2.90;;
50681;SDS011;36779;52.168;20.878;2023-04-24T15:22:40;6.60;;;3.10;;
50681;SDS011;36779;52.168;20.878;2023-04-24T15:25:33;5.50;;;3.20;;
50681;SDS011;36779;52.168;20.878;2023-04-24T15:28:26;4.70;;;2.90;;
50681;SDS011;36779;52.168;20.878;2023-04-24T15:31:19;4.90;;;3.00;;
50681;SDS011;36779;52.168;20.878;2023-04-24T15:34:13;6.30;;;3.10;;
50681;SDS011;36779;52.168;20.878;2023-04-24T15:37:04;5.30;;;3.10;;
50681;SDS011;36779;52.168;20.878;2023-04-24T15:39:57;5.70;;;3.30;;
50681;SDS011;36779;52.168;20.878;2023-04-24T15:42:50;3.60;;;3.20;;
50681;SDS011;36779;52.168;20.878;2023-04-24T15:45:46;3.20;;;2.50;;
50681;SDS011;36779;52.168;20.878;2023-04-24T15:48:43;5.70;;;3.00;;
50681;SDS011;36779;52.168;20.878;2023-04-24T15:51:44;4.30;;;3.20;;
50681;SDS011;36779;52.168;20.878;2023-04-24T15:54:41;3.40;;;2.50;;
50681;SDS011;36779;52.168;20.878;2023-04-24T15:57:35;3.70;;;2.90;;
50681;SDS011;36779;52.168;20.878;2023-04-24T16:00:28;5.10;;;3.10;;
50681;SDS011;36779;52.168;20.878;2023-04-24T16:03:19;4.80;;;3.10;;
50681;SDS011;36779;52.168;20.878;2023-04-24T16:06:13;6.50;;;2.90;;
50681;SDS011;36779;52.168;20.878;2023-04-24T16:09:06;6.90;;;3.40;;
50681;SDS011;36779;52.168;20.878;2023-04-24T16:11:59;6.00;;;2.90;;
50681;SDS011;36779;52.168;20.878;2023-04-24T16:14:52;4.00;;;2.90;;
50681;SDS011;36779;52.168;20.878;2023-04-24T16:17:45;6.80;;;3.40;;
50681;SDS011;36779;52.168;20.878;2023-04-24T16:20:39;4.50;;;3.00;;
50681;SDS011;36779;52.168;20.878;2023-04-24T16:23:34;6.00;;;3.00;;
50681;SDS011;36779;52.168;20.878;2023-04-24T16:26:27;5.00;;;3.50;;
50681;SDS011;36779;52.168;20.878;2023-04-24T16:29:20;6.40;;;3.00;;
50681;SDS011;36779;52.168;20.878;2023-04-24T16:32:15;6.40;;;3.40;;
50681;SDS011;36779;52.168;20.878;2023-04-24T16:35:09;6.70;;;3.60;;
50681;SDS011;36779;52.168;20.878;2023-04-24T16:37:54;5.70;;;3.00;;
50681;SDS011;36779;52.168;20.878;2023-04-24T16:40:47;5.20;;;3.10;;
50681;SDS011;36779;52.168;20.878;2023-04-24T16:43:42;5.10;;;2.90;;
50681;SDS011;36779;52.168;20.878;2023-04-24T16:49:43;7.30;;;3.30;;
50681;SDS011;36779;52.168;20.878;2023-04-24T16:52:30;8.80;;;4.40;;
50681;SDS011;36779;52.168;20.878;2023-04-24T16:55:24;17.10;;;8.00;;
50681;SDS011;36779;52.168;20.878;2023-04-24T16:58:06;15.20;;;10.20;;
50681;SDS011;36779;52.168;20.878;2023-04-24T17:00:59;20.30;;;11.40;;
50681;SDS011;36779;52.168;20.878;2023-04-24T17:03:52;18.20;;;12.10;;
50681;SDS011;36779;52.168;20.878;2023-04-24T17:06:46;20.10;;;12.70;;
50681;SDS011;36779;52.168;20.878;2023-04-24T17:09:39;20.20;;;11.20;;
50681;SDS011;36779;52.168;20.878;2023-04-24T17:12:33;15.00;;;10.10;;
50681;SDS011;36779;52.168;20.878;2023-04-24T17:15:26;24.90;;;9.80;;
50681;SDS011;36779;52.168;20.878;2023-04-24T17:18:19;15.90;;;8.10;;
50681;SDS011;36779;52.168;20.878;2023-04-24T17:21:25;10.20;;;6.90;;
50681;SDS011;36779;52.168;20.878;2023-04-24T17:24:19;10.90;;;5.50;;
50681;SDS011;36779;52.168;20.878;2023-04-24T17:27:12;7.30;;;4.30;;
50681;SDS011;36779;52.168;20.878;2023-04-24T17:30:07;7.20;;;4.40;;
50681;SDS011;36779;52.168;20.878;2023-04-24T17:33:02;10.80;;;4.50;;
50681;SDS011;36779;52.168;20.878;2023-04-24T17:35:56;9.70;;;4.00;;
50681;SDS011;36779;52.168;20.878;2023-04-24T17:39:04;15.40;;;5.50;;
50681;SDS011;36779;52.168;20.878;2023-04-24T17:41:58;28.30;;;10.00;;
50681;SDS011;36779;52.168;20.878;2023-04-24T17:44:51;24.00;;;9.30;;